sensor_id;sensor_type;location;lat;lon;timestamp;P1;durP1;ratioP1;P2;durP2;ratioP2
45676;SDS011;31390;51.186;6.830;2022-09-16T00:00:44;2.95;;;1.13;;
45676;SDS011;31390;51.186;6.830;2022-09-16T00:03:11;3.08;;;1.17;;
45676;SDS011;31390;51.186;6.830;2022-09-16T00:05:42;3.83;;;1.30;;
45676;SDS011;31390;51.186;6.830;2022-09-16T00:08:08;3.63;;;1.40;;
45676;SDS011;31390;51.186;6.830;2022-09-16T00:10:35;3.50;;;1.00;;
45676;SDS011;31390;51.186;6.830;2022-09-16T00:13:02;4.28;;;1.30;;
45676;SDS011;31390;51.186;6.830;2022-09-16T00:15:29;3.20;;;1.00;;
45676;SDS011;31390;51.186;6.830;2022-09-16T00:17:55;4.03;;;1.30;;
45676;SDS011;31390;51.186;6.830;2022-09-16T00:20:22;6.43;;;1.25;;
45676;SDS011;31390;51.186;6.830;2022-09-16T00:22:48;4.05;;;1.45;;
45676;SDS011;31390;51.186;6.830;2022-09-16T00:25:14;4.60;;;1.50;;
45676;SDS011;31390;51.186;6.830;2022-09-16T00:27:41;6.10;;;1.23;;
45676;SDS011;31390;51.186;6.830;2022-09-16T00:30:07;4.43;;;1.30;;
45676;SDS011;31390;51.186;6.830;2022-09-16T00:32:34;2.33;;;1.10;;
45676;SDS011;31390;51.186;6.830;2022-09-16T00:35:00;2.95;;;1.10;;
45676;SDS011;31390;51.186;6.830;2022-09-16T00:37:27;2.85;;;1.15;;
45676;SDS011;31390;51.186;6.830;2022-09-16T00:39:53;1.92;;;0.80;;
45676;SDS011;31390;51.186;6.830;2022-09-16T00:42:20;3.35;;;0.98;;
45676;SDS011;31390;51.186;6.830;2022-09-16T00:44:51;4.55;;;1.38;;
45676;SDS011;31390;51.186;6.830;2022-09-16T00:47:28;2.88;;;0.77;;
45676;SDS011;31390;51.186;6.830;2022-09-16T00:49:58;5.57;;;1.40;;
45676;SDS011;31390;51.186;6.830;2022-09-16T00:52:27;2.55;;;1.00;;
45676;SDS011;31390;51.186;6.830;2022-09-16T00:54:56;2.83;;;0.90;;
45676;SDS011;31390;51.186;6.830;2022-09-16T00:57:22;4.28;;;1.23;;
45676;SDS011;31390;51.186;6.830;2022-09-16T00:59:51;3.53;;;1.10;;
45676;SDS011;31390;51.186;6.830;2022-09-16T01:02:18;5.97;;;1.15;;
45676;SDS011;31390;51.186;6.830;2022-09-16T01:04:50;2.47;;;1.00;;
45676;SDS011;31390;51.186;6.830;2022-09-16T01:07:18;3.85;;;1.10;;
45676;SDS011;31390;51.186;6.830;2022-09-16T01:09:47;4.05;;;1.33;;
45676;SDS011;31390;51.186;6.830;2022-09-16T01:12:14;4.18;;;1.25;;
45676;SDS011;31390;51.186;6.830;2022-09-16T01:14:40;4.28;;;1.08;;
45676;SDS011;31390;51.186;6.830;2022-09-16T01:19:57;2.63;;;0.90;;
45676;SDS011;31390;51.186;6.830;2022-09-16T01:25:17;5.15;;;1.20;;
45676;SDS011;31390;51.186;6.830;2022-09-16T01:27:57;4.57;;;1.13;;
45676;SDS011;31390;51.186;6.830;2022-09-16T01:30:37;3.70;;;1.15;;
45676;SDS011;31390;51.186;6.830;2022-09-16T01:33:52;4.85;;;1.48;;
45676;SDS011;31390;51.186;6.830;2022-09-16T01:36:02;3.65;;;1.27;;
45676;SDS011;31390;51.186;6.830;2022-09-16T01:41:05;4.38;;;1.27;;
45676;SDS011;31390;51.186;6.830;2022-09-16T01:43:48;3.63;;;1.33;;
45676;SDS011;31390;51.186;6.830;2022-09-16T01:51:21;7.00;;;1.63;;
45676;SDS011;31390;51.186;6.830;2022-09-16T01:53:51;5.53;;;1.70;;
45676;SDS011;31390;51.186;6.830;2022-09-16T01:56:21;3.55;;;1.80;;
45676;SDS011;31390;51.186;6.830;2022-09-16T01:58:53;4.38;;;1.42;;
45676;SDS011;31390;51.186;6.830;2022-09-16T02:01:23;4.78;;;1.35;;
45676;SDS011;31390;51.186;6.830;2022-09-16T02:03:54;3.70;;;1.50;;
45676;SDS011;31390;51.186;6.830;2022-09-16T02:06:23;4.07;;;1.50;;
45676;SDS011;31390;51.186;6.830;2022-09-16T02:08:59;2.25;;;1.55;;
45676;SDS011;31390;51.186;6.830;2022-09-16T02:11:27;3.58;;;1.55;;
45676;SDS011;31390;51.186;6.830;2022-09-16T02:13:56;3.40;;;1.10;;
45676;SDS011;31390;51.186;6.830;2022-09-16T02:16:34;3.60;;;1.80;;
45676;SDS011;31390;51.186;6.830;2022-09-16T02:19:03;5.47;;;1.83;;
45676;SDS011;31390;51.186;6.830;2022-09-16T02:21:32;7.75;;;1.70;;
45676;SDS011;31390;51.186;6.830;2022-09-16T02:24:00;9.05;;;1.98;;
45676;SDS011;31390;51.186;6.830;2022-09-16T02:26:29;4.40;;;1.50;;
45676;SDS011;31390;51.186;6.830;2022-09-16T02:28:56;6.82;;;1.65;;
45676;SDS011;31390;51.186;6.830;2022-09-16T02:31:27;4.75;;;1.67;;
45676;SDS011;31390;51.186;6.830;2022-09-16T02:33:59;5.15;;;1.58;;
45676;SDS011;31390;51.186;6.830;2022-09-16T02:36:28;4.93;;;1.95;;
45676;SDS011;31390;51.186;6.830;2022-09-16T02:38:59;6.85;;;1.70;;
45676;SDS011;31390;51.186;6.830;2022-09-16T02:41:27;5.55;;;2.03;;
45676;SDS011;31390;51.186;6.830;2022-09-16T02:43:54;4.15;;;1.60;;
45676;SDS011;31390;51.186;6.830;2022-09-16T02:48:55;3.28;;;1.65;;
45676;SDS011;31390;51.186;6.830;2022-09-16T02:51:34;6.85;;;2.15;;
45676;SDS011;31390;51.186;6.830;2022-09-16T02:54:09;5.85;;;2.10;;
45676;SDS011;31390;51.186;6.830;2022-09-16T02:56:38;6.60;;;2.10;;
45676;SDS011;31390;51.186;6.830;2022-09-16T02:59:06;7.95;;;1.95;;
45676;SDS011;31390;51.186;6.830;2022-09-16T03:01:42;3.45;;;1.90;;
45676;SDS011;31390;51.186;6.830;2022-09-16T03:04:10;4.78;;;2.50;;
45676;SDS011;31390;51.186;6.830;2022-09-16T03:06:37;6.25;;;2.10;;
45676;SDS011;31390;51.186;6.830;2022-09-16T03:09:05;2.63;;;1.75;;
45676;SDS011;31390;51.186;6.830;2022-09-16T03:11:43;4.53;;;2.05;;
45676;SDS011;31390;51.186;6.830;2022-09-16T03:14:18;6.25;;;2.50;;
45676;SDS011;31390;51.186;6.830;2022-09-16T03:19:19;5.45;;;2.10;;
45676;SDS011;31390;51.186;6.830;2022-09-16T03:21:54;6.43;;;2.53;;
45676;SDS011;31390;51.186;6.830;2022-09-16T03:24:43;5.13;;;2.33;;
45676;SDS011;31390;51.186;6.830;2022-09-16T03:27:15;4.10;;;2.28;;
45676;SDS011;31390;51.186;6.830;2022-09-16T03:29:52;6.53;;;2.60;;
45676;SDS011;31390;51.186;6.830;2022-09-16T03:32:22;4.03;;;2.42;;
45676;SDS011;31390;51.186;6.830;2022-09-16T03:34:50;7.25;;;3.00;;
45676;SDS011;31390;51.186;6.830;2022-09-16T03:37:18;9.35;;;2.70;;
45676;SDS011;31390;51.186;6.830;2022-09-16T03:39:49;6.78;;;2.53;;
45676;SDS011;31390;51.186;6.830;2022-09-16T03:42:18;5.15;;;2.60;;
45676;SDS011;31390;51.186;6.830;2022-09-16T03:44:45;7.10;;;2.97;;
45676;SDS011;31390;51.186;6.830;2022-09-16T03:47:11;7.53;;;2.72;;
45676;SDS011;31390;51.186;6.830;2022-09-16T03:49:37;7.95;;;2.40;;
45676;SDS011;31390;51.186;6.830;2022-09-16T03:52:04;7.07;;;2.83;;
45676;SDS011;31390;51.186;6.830;2022-09-16T03:54:32;4.30;;;1.88;;
45676;SDS011;31390;51.186;6.830;2022-09-16T03:56:58;5.43;;;2.10;;
45676;SDS011;31390;51.186;6.830;2022-09-16T03:59:26;5.07;;;2.47;;
45676;SDS011;31390;51.186;6.830;2022-09-16T04:01:52;4.68;;;2.47;;
45676;SDS011;31390;51.186;6.830;2022-09-16T04:04:19;5.80;;;2.40;;
45676;SDS011;31390;51.186;6.830;2022-09-16T04:06:45;7.65;;;2.63;;
45676;SDS011;31390;51.186;6.830;2022-09-16T04:09:12;7.15;;;2.38;;
45676;SDS011;31390;51.186;6.830;2022-09-16T04:11:39;9.05;;;2.72;;
45676;SDS011;31390;51.186;6.830;2022-09-16T04:14:05;5.50;;;2.20;;
45676;SDS011;31390;51.186;6.830;2022-09-16T04:16:32;4.05;;;1.88;;
45676;SDS011;31390;51.186;6.830;2022-09-16T04:18:59;7.10;;;2.42;;
45676;SDS011;31390;51.186;6.830;2022-09-16T04:21:26;4.65;;;2.22;;
45676;SDS011;31390;51.186;6.830;2022-09-16T04:23:53;8.40;;;2.50;;
45676;SDS011;31390;51.186;6.830;2022-09-16T04:26:20;8.02;;;2.50;;
45676;SDS011;31390;51.186;6.830;2022-09-16T04:28:46;7.50;;;2.78;;
45676;SDS011;31390;51.186;6.830;2022-09-16T04:31:16;6.15;;;2.53;;
45676;SDS011;31390;51.186;6.830;2022-09-16T04:33:42;8.68;;;3.03;;
45676;SDS011;31390;51.186;6.830;2022-09-16T04:36:10;5.72;;;2.88;;
45676;SDS011;31390;51.186;6.830;2022-09-16T04:38:41;5.70;;;2.90;;
45676;SDS011;31390;51.186;6.830;2022-09-16T04:41:12;6.13;;;2.75;;
45676;SDS011;31390;51.186;6.830;2022-09-16T04:43:39;9.80;;;2.63;;
45676;SDS011;31390;51.186;6.830;2022-09-16T04:46:05;7.40;;;3.30;;
45676;SDS011;31390;51.186;6.830;2022-09-16T04:48:33;9.35;;;3.42;;
45676;SDS011;31390;51.186;6.830;2022-09-16T04:51:03;7.60;;;3.60;;
45676;SDS011;31390;51.186;6.830;2022-09-16T04:53:30;8.65;;;3.90;;
45676;SDS011;31390;51.186;6.830;2022-09-16T04:56:13;5.82;;;3.40;;
45676;SDS011;31390;51.186;6.830;2022-09-16T04:58:41;9.05;;;3.95;;
45676;SDS011;31390;51.186;6.830;2022-09-16T05:01:12;7.38;;;3.03;;
45676;SDS011;31390;51.186;6.830;2022-09-16T05:03:40;7.35;;;3.55;;
45676;SDS011;31390;51.186;6.830;2022-09-16T05:06:12;6.55;;;3.35;;
45676;SDS011;31390;51.186;6.830;2022-09-16T05:08:45;7.10;;;3.88;;
45676;SDS011;31390;51.186;6.830;2022-09-16T05:11:13;6.03;;;3.33;;
45676;SDS011;31390;51.186;6.830;2022-09-16T05:13:40;4.15;;;2.95;;
45676;SDS011;31390;51.186;6.830;2022-09-16T05:16:08;10.13;;;4.00;;
45676;SDS011;31390;51.186;6.830;2022-09-16T05:18:35;7.90;;;3.63;;
45676;SDS011;31390;51.186;6.830;2022-09-16T05:21:03;7.30;;;3.58;;
45676;SDS011;31390;51.186;6.830;2022-09-16T05:23:31;7.18;;;2.90;;
45676;SDS011;31390;51.186;6.830;2022-09-16T05:26:01;7.85;;;3.30;;
45676;SDS011;31390;51.186;6.830;2022-09-16T05:28:28;7.43;;;2.55;;
45676;SDS011;31390;51.186;6.830;2022-09-16T05:30:55;14.65;;;3.30;;
45676;SDS011;31390;51.186;6.830;2022-09-16T05:33:22;5.00;;;2.42;;
45676;SDS011;31390;51.186;6.830;2022-09-16T05:35:48;5.95;;;2.90;;
45676;SDS011;31390;51.186;6.830;2022-09-16T05:38:14;5.90;;;2.92;;
45676;SDS011;31390;51.186;6.830;2022-09-16T05:40:41;7.57;;;3.13;;
45676;SDS011;31390;51.186;6.830;2022-09-16T05:43:07;6.20;;;2.72;;
45676;SDS011;31390;51.186;6.830;2022-09-16T05:45:34;7.70;;;2.80;;
45676;SDS011;31390;51.186;6.830;2022-09-16T05:48:00;4.97;;;2.30;;
45676;SDS011;31390;51.186;6.830;2022-09-16T05:50:27;8.15;;;2.92;;
45676;SDS011;31390;51.186;6.830;2022-09-16T05:52:53;6.22;;;2.95;;
45676;SDS011;31390;51.186;6.830;2022-09-16T05:55:20;7.90;;;2.60;;
45676;SDS011;31390;51.186;6.830;2022-09-16T05:57:46;7.90;;;2.30;;
45676;SDS011;31390;51.186;6.830;2022-09-16T06:00:13;5.95;;;2.40;;
45676;SDS011;31390;51.186;6.830;2022-09-16T06:02:40;5.80;;;2.83;;
45676;SDS011;31390;51.186;6.830;2022-09-16T06:05:06;6.55;;;2.45;;
45676;SDS011;31390;51.186;6.830;2022-09-16T06:07:33;5.72;;;2.30;;
45676;SDS011;31390;51.186;6.830;2022-09-16T06:09:59;7.53;;;2.72;;
45676;SDS011;31390;51.186;6.830;2022-09-16T06:12:26;3.78;;;2.05;;
45676;SDS011;31390;51.186;6.830;2022-09-16T06:14:52;6.25;;;2.10;;
45676;SDS011;31390;51.186;6.830;2022-09-16T06:17:19;4.93;;;1.90;;
45676;SDS011;31390;51.186;6.830;2022-09-16T06:19:45;9.05;;;2.45;;
45676;SDS011;31390;51.186;6.830;2022-09-16T06:22:12;4.78;;;2.00;;
45676;SDS011;31390;51.186;6.830;2022-09-16T06:24:38;6.20;;;2.17;;
45676;SDS011;31390;51.186;6.830;2022-09-16T06:27:05;5.90;;;2.20;;
45676;SDS011;31390;51.186;6.830;2022-09-16T06:29:31;4.45;;;2.30;;
45676;SDS011;31390;51.186;6.830;2022-09-16T06:31:58;4.18;;;2.35;;
45676;SDS011;31390;51.186;6.830;2022-09-16T06:34:24;4.65;;;2.70;;
45676;SDS011;31390;51.186;6.830;2022-09-16T06:36:52;5.70;;;2.10;;
45676;SDS011;31390;51.186;6.830;2022-09-16T06:39:18;4.15;;;2.17;;
45676;SDS011;31390;51.186;6.830;2022-09-16T06:41:45;5.97;;;2.60;;
45676;SDS011;31390;51.186;6.830;2022-09-16T06:44:11;5.22;;;2.28;;
45676;SDS011;31390;51.186;6.830;2022-09-16T06:46:38;9.75;;;2.88;;
45676;SDS011;31390;51.186;6.830;2022-09-16T06:49:05;3.30;;;2.17;;
45676;SDS011;31390;51.186;6.830;2022-09-16T06:51:32;7.22;;;2.72;;
45676;SDS011;31390;51.186;6.830;2022-09-16T06:54:00;5.88;;;2.00;;
45676;SDS011;31390;51.186;6.830;2022-09-16T06:56:27;7.72;;;2.38;;
45676;SDS011;31390;51.186;6.830;2022-09-16T06:58:54;4.80;;;2.22;;
45676;SDS011;31390;51.186;6.830;2022-09-16T07:01:22;4.68;;;2.05;;
45676;SDS011;31390;51.186;6.830;2022-09-16T07:03:49;3.97;;;1.80;;
45676;SDS011;31390;51.186;6.830;2022-09-16T07:06:16;4.05;;;2.35;;
45676;SDS011;31390;51.186;6.830;2022-09-16T07:08:43;3.75;;;2.20;;
45676;SDS011;31390;51.186;6.830;2022-09-16T07:11:12;4.88;;;1.92;;
45676;SDS011;31390;51.186;6.830;2022-09-16T07:13:38;5.72;;;2.00;;
45676;SDS011;31390;51.186;6.830;2022-09-16T07:16:06;8.98;;;2.45;;
45676;SDS011;31390;51.186;6.830;2022-09-16T07:18:40;3.70;;;1.88;;
45676;SDS011;31390;51.186;6.830;2022-09-16T07:21:18;4.63;;;2.13;;
45676;SDS011;31390;51.186;6.830;2022-09-16T07:23:45;5.60;;;1.90;;
45676;SDS011;31390;51.186;6.830;2022-09-16T07:26:13;6.10;;;2.42;;
45676;SDS011;31390;51.186;6.830;2022-09-16T07:28:40;6.45;;;2.30;;
45676;SDS011;31390;51.186;6.830;2022-09-16T07:31:08;4.50;;;1.98;;
45676;SDS011;31390;51.186;6.830;2022-09-16T07:33:39;4.90;;;2.03;;
45676;SDS011;31390;51.186;6.830;2022-09-16T07:36:07;5.90;;;2.30;;
45676;SDS011;31390;51.186;6.830;2022-09-16T07:38:34;5.78;;;1.92;;
45676;SDS011;31390;51.186;6.830;2022-09-16T07:43:55;8.55;;;2.40;;
45676;SDS011;31390;51.186;6.830;2022-09-16T07:46:24;4.95;;;2.53;;
45676;SDS011;31390;51.186;6.830;2022-09-16T07:48:51;3.92;;;2.00;;
45676;SDS011;31390;51.186;6.830;2022-09-16T07:51:18;6.97;;;2.08;;
45676;SDS011;31390;51.186;6.830;2022-09-16T07:53:45;6.20;;;2.47;;
45676;SDS011;31390;51.186;6.830;2022-09-16T07:56:13;6.72;;;2.35;;
45676;SDS011;31390;51.186;6.830;2022-09-16T07:58:40;4.55;;;2.30;;
45676;SDS011;31390;51.186;6.830;2022-09-16T08:01:10;7.35;;;2.67;;
45676;SDS011;31390;51.186;6.830;2022-09-16T08:03:38;4.28;;;2.20;;
45676;SDS011;31390;51.186;6.830;2022-09-16T08:06:05;5.85;;;2.25;;
45676;SDS011;31390;51.186;6.830;2022-09-16T08:08:33;7.63;;;2.92;;
45676;SDS011;31390;51.186;6.830;2022-09-16T08:11:00;6.72;;;1.63;;
45676;SDS011;31390;51.186;6.830;2022-09-16T08:13:42;6.05;;;2.25;;
45676;SDS011;31390;51.186;6.830;2022-09-16T08:16:19;4.97;;;1.98;;
45676;SDS011;31390;51.186;6.830;2022-09-16T08:18:47;7.45;;;2.58;;
45676;SDS011;31390;51.186;6.830;2022-09-16T08:21:17;4.65;;;2.20;;
45676;SDS011;31390;51.186;6.830;2022-09-16T08:23:44;6.43;;;1.90;;
45676;SDS011;31390;51.186;6.830;2022-09-16T08:26:11;4.57;;;1.83;;
45676;SDS011;31390;51.186;6.830;2022-09-16T08:28:40;5.72;;;1.63;;
45676;SDS011;31390;51.186;6.830;2022-09-16T08:31:27;3.47;;;1.27;;
45676;SDS011;31390;51.186;6.830;2022-09-16T08:33:53;6.45;;;1.25;;
45676;SDS011;31390;51.186;6.830;2022-09-16T08:36:21;4.43;;;1.52;;
45676;SDS011;31390;51.186;6.830;2022-09-16T08:38:49;5.13;;;1.15;;
45676;SDS011;31390;51.186;6.830;2022-09-16T08:44:04;3.83;;;1.40;;
45676;SDS011;31390;51.186;6.830;2022-09-16T08:46:33;3.60;;;1.60;;
45676;SDS011;31390;51.186;6.830;2022-09-16T08:51:28;6.35;;;1.60;;
45676;SDS011;31390;51.186;6.830;2022-09-16T08:53:59;7.50;;;1.33;;
45676;SDS011;31390;51.186;6.830;2022-09-16T08:56:26;5.28;;;1.45;;
45676;SDS011;31390;51.186;6.830;2022-09-16T08:58:55;5.43;;;1.50;;
45676;SDS011;31390;51.186;6.830;2022-09-16T09:03:50;3.67;;;1.20;;
45676;SDS011;31390;51.186;6.830;2022-09-16T09:06:20;3.97;;;1.27;;
45676;SDS011;31390;51.186;6.830;2022-09-16T09:14:17;3.25;;;1.38;;
45676;SDS011;31390;51.186;6.830;2022-09-16T09:16:49;3.70;;;1.30;;
45676;SDS011;31390;51.186;6.830;2022-09-16T09:27:26;4.47;;;1.13;;
45676;SDS011;31390;51.186;6.830;2022-09-16T09:30:12;2.78;;;0.93;;
45676;SDS011;31390;51.186;6.830;2022-09-16T09:32:43;4.75;;;1.65;;
45676;SDS011;31390;51.186;6.830;2022-09-16T09:45:37;3.40;;;1.40;;
45676;SDS011;31390;51.186;6.830;2022-09-16T09:48:20;6.47;;;1.00;;
45676;SDS011;31390;51.186;6.830;2022-09-16T09:50:48;3.50;;;1.00;;
45676;SDS011;31390;51.186;6.830;2022-09-16T09:53:26;2.78;;;1.08;;
45676;SDS011;31390;51.186;6.830;2022-09-16T09:55:56;2.92;;;1.08;;
45676;SDS011;31390;51.186;6.830;2022-09-16T09:58:29;2.20;;;0.80;;
45676;SDS011;31390;51.186;6.830;2022-09-16T10:01:00;4.30;;;0.95;;
45676;SDS011;31390;51.186;6.830;2022-09-16T10:03:27;2.72;;;0.88;;
45676;SDS011;31390;51.186;6.830;2022-09-16T10:05:53;2.13;;;0.85;;
45676;SDS011;31390;51.186;6.830;2022-09-16T10:10:50;2.55;;;0.90;;
45676;SDS011;31390;51.186;6.830;2022-09-16T10:13:18;2.63;;;0.77;;
45676;SDS011;31390;51.186;6.830;2022-09-16T10:15:44;7.18;;;1.30;;
45676;SDS011;31390;51.186;6.830;2022-09-16T10:18:25;5.95;;;1.90;;
45676;SDS011;31390;51.186;6.830;2022-09-16T10:21:02;16.10;;;2.63;;
45676;SDS011;31390;51.186;6.830;2022-09-16T10:23:28;16.38;;;3.28;;
45676;SDS011;31390;51.186;6.830;2022-09-16T10:26:04;6.88;;;1.30;;
45676;SDS011;31390;51.186;6.830;2022-09-16T10:28:31;6.18;;;2.08;;
45676;SDS011;31390;51.186;6.830;2022-09-16T10:30:58;4.90;;;1.50;;
45676;SDS011;31390;51.186;6.830;2022-09-16T10:35:56;6.88;;;2.00;;
45676;SDS011;31390;51.186;6.830;2022-09-16T10:38:26;9.85;;;2.60;;
45676;SDS011;31390;51.186;6.830;2022-09-16T10:41:03;9.30;;;2.33;;
45676;SDS011;31390;51.186;6.830;2022-09-16T10:43:31;5.13;;;1.85;;
45676;SDS011;31390;51.186;6.830;2022-09-16T10:45:57;7.03;;;2.42;;
45676;SDS011;31390;51.186;6.830;2022-09-16T10:48:25;7.32;;;2.20;;
45676;SDS011;31390;51.186;6.830;2022-09-16T10:50:57;15.38;;;3.58;;
45676;SDS011;31390;51.186;6.830;2022-09-16T10:53:31;10.75;;;3.25;;
45676;SDS011;31390;51.186;6.830;2022-09-16T10:55:59;5.68;;;1.67;;
45676;SDS011;31390;51.186;6.830;2022-09-16T10:58:26;8.10;;;2.42;;
45676;SDS011;31390;51.186;6.830;2022-09-16T11:09:18;6.40;;;2.10;;
45676;SDS011;31390;51.186;6.830;2022-09-16T11:11:50;9.13;;;3.13;;
45676;SDS011;31390;51.186;6.830;2022-09-16T11:14:53;7.75;;;2.58;;
45676;SDS011;31390;51.186;6.830;2022-09-16T11:17:20;6.35;;;2.60;;
45676;SDS011;31390;51.186;6.830;2022-09-16T11:19:57;8.60;;;2.97;;
45676;SDS011;31390;51.186;6.830;2022-09-16T11:27:28;7.65;;;2.47;;
45676;SDS011;31390;51.186;6.830;2022-09-16T11:30:07;6.57;;;2.30;;
45676;SDS011;31390;51.186;6.830;2022-09-16T11:35:18;5.93;;;2.00;;
45676;SDS011;31390;51.186;6.830;2022-09-16T11:37:59;6.53;;;1.98;;
45676;SDS011;31390;51.186;6.830;2022-09-16T11:43:14;4.70;;;1.60;;
45676;SDS011;31390;51.186;6.830;2022-09-16T11:45:48;5.00;;;2.22;;
45676;SDS011;31390;51.186;6.830;2022-09-16T11:51:05;8.25;;;2.40;;
45676;SDS011;31390;51.186;6.830;2022-09-16T11:56:18;6.93;;;1.80;;
45676;SDS011;31390;51.186;6.830;2022-09-16T11:58:57;6.90;;;0.80;;
45676;SDS011;31390;51.186;6.830;2022-09-16T12:01:35;2.55;;;1.17;;
45676;SDS011;31390;51.186;6.830;2022-09-16T12:06:39;2.78;;;1.05;;
45676;SDS011;31390;51.186;6.830;2022-09-16T12:09:11;3.25;;;0.90;;
45676;SDS011;31390;51.186;6.830;2022-09-16T12:11:43;3.03;;;1.23;;
45676;SDS011;31390;51.186;6.830;2022-09-16T12:19:51;3.65;;;1.52;;
45676;SDS011;31390;51.186;6.830;2022-09-16T12:32:14;4.90;;;1.77;;
45676;SDS011;31390;51.186;6.830;2022-09-16T12:34:44;7.10;;;1.50;;
45676;SDS011;31390;51.186;6.830;2022-09-16T12:39:37;2.80;;;1.70;;
45676;SDS011;31390;51.186;6.830;2022-09-16T12:42:09;3.22;;;1.48;;
45676;SDS011;31390;51.186;6.830;2022-09-16T12:52:25;1.10;;;0.90;;
45676;SDS011;31390;51.186;6.830;2022-09-16T12:57:47;3.08;;;0.90;;
45676;SDS011;31390;51.186;6.830;2022-09-16T13:00:18;1.60;;;0.88;;
45676;SDS011;31390;51.186;6.830;2022-09-16T13:02:53;1.95;;;0.70;;
45676;SDS011;31390;51.186;6.830;2022-09-16T13:05:23;1.15;;;0.75;;
45676;SDS011;31390;51.186;6.830;2022-09-16T13:07:55;1.38;;;0.60;;
45676;SDS011;31390;51.186;6.830;2022-09-16T13:10:35;1.83;;;0.90;;
45676;SDS011;31390;51.186;6.830;2022-09-16T13:13:32;3.30;;;0.90;;
45676;SDS011;31390;51.186;6.830;2022-09-16T13:16:00;3.30;;;0.70;;
45676;SDS011;31390;51.186;6.830;2022-09-16T13:18:43;4.60;;;0.80;;
45676;SDS011;31390;51.186;6.830;2022-09-16T13:23:51;3.35;;;1.02;;
45676;SDS011;31390;51.186;6.830;2022-09-16T13:26:18;4.53;;;0.98;;
45676;SDS011;31390;51.186;6.830;2022-09-16T13:28:45;3.78;;;0.88;;
45676;SDS011;31390;51.186;6.830;2022-09-16T13:33:40;3.63;;;1.10;;
45676;SDS011;31390;51.186;6.830;2022-09-16T13:38:50;2.55;;;1.02;;
45676;SDS011;31390;51.186;6.830;2022-09-16T13:41:31;5.90;;;1.27;;
45676;SDS011;31390;51.186;6.830;2022-09-16T13:43:57;2.58;;;0.90;;
45676;SDS011;31390;51.186;6.830;2022-09-16T13:46:32;4.45;;;1.30;;
45676;SDS011;31390;51.186;6.830;2022-09-16T13:51:30;2.70;;;0.98;;
45676;SDS011;31390;51.186;6.830;2022-09-16T13:54:01;10.93;;;1.50;;
45676;SDS011;31390;51.186;6.830;2022-09-16T13:59:11;3.63;;;1.42;;
45676;SDS011;31390;51.186;6.830;2022-09-16T14:04:33;3.92;;;1.15;;
45676;SDS011;31390;51.186;6.830;2022-09-16T14:07:10;2.42;;;0.82;;
45676;SDS011;31390;51.186;6.830;2022-09-16T14:14:43;2.97;;;1.00;;
45676;SDS011;31390;51.186;6.830;2022-09-16T14:17:14;3.15;;;0.80;;
45676;SDS011;31390;51.186;6.830;2022-09-16T14:19:42;3.38;;;0.82;;
45676;SDS011;31390;51.186;6.830;2022-09-16T14:24:39;0.52;;;0.40;;
45676;SDS011;31390;51.186;6.830;2022-09-16T14:27:17;2.00;;;0.50;;
45676;SDS011;31390;51.186;6.830;2022-09-16T14:29:55;2.00;;;0.50;;
45676;SDS011;31390;51.186;6.830;2022-09-16T14:32:23;1.23;;;0.40;;
45676;SDS011;31390;51.186;6.830;2022-09-16T14:34:50;1.27;;;0.43;;
45676;SDS011;31390;51.186;6.830;2022-09-16T14:37:20;1.58;;;0.70;;
45676;SDS011;31390;51.186;6.830;2022-09-16T14:39:47;1.40;;;0.60;;
45676;SDS011;31390;51.186;6.830;2022-09-16T14:42:21;1.85;;;0.70;;
45676;SDS011;31390;51.186;6.830;2022-09-16T14:44:49;1.23;;;0.50;;
45676;SDS011;31390;51.186;6.830;2022-09-16T14:50:15;2.17;;;0.60;;
45676;SDS011;31390;51.186;6.830;2022-09-16T14:52:51;2.67;;;1.00;;
45676;SDS011;31390;51.186;6.830;2022-09-16T14:55:19;1.80;;;0.60;;
45676;SDS011;31390;51.186;6.830;2022-09-16T14:57:46;1.70;;;0.60;;
45676;SDS011;31390;51.186;6.830;2022-09-16T15:00:13;1.85;;;0.75;;
45676;SDS011;31390;51.186;6.830;2022-09-16T15:05:24;2.47;;;0.70;;
45676;SDS011;31390;51.186;6.830;2022-09-16T15:07:53;5.05;;;1.10;;
45676;SDS011;31390;51.186;6.830;2022-09-16T15:10:39;2.22;;;1.00;;
45676;SDS011;31390;51.186;6.830;2022-09-16T15:13:22;2.22;;;0.70;;
45676;SDS011;31390;51.186;6.830;2022-09-16T15:15:51;4.75;;;0.80;;
45676;SDS011;31390;51.186;6.830;2022-09-16T15:18:22;2.70;;;0.90;;
45676;SDS011;31390;51.186;6.830;2022-09-16T15:20:51;2.70;;;1.00;;
45676;SDS011;31390;51.186;6.830;2022-09-16T15:23:19;5.25;;;1.08;;
45676;SDS011;31390;51.186;6.830;2022-09-16T15:25:52;4.57;;;1.23;;
45676;SDS011;31390;51.186;6.830;2022-09-16T15:28:20;3.65;;;0.93;;
45676;SDS011;31390;51.186;6.830;2022-09-16T15:30:51;2.67;;;0.90;;
45676;SDS011;31390;51.186;6.830;2022-09-16T15:33:21;2.55;;;0.77;;
45676;SDS011;31390;51.186;6.830;2022-09-16T15:35:48;2.72;;;0.70;;
45676;SDS011;31390;51.186;6.830;2022-09-16T15:38:18;2.67;;;1.00;;
45676;SDS011;31390;51.186;6.830;2022-09-16T15:40:45;2.28;;;0.80;;
45676;SDS011;31390;51.186;6.830;2022-09-16T15:43:27;2.33;;;0.85;;
45676;SDS011;31390;51.186;6.830;2022-09-16T15:45:59;3.58;;;1.05;;
45676;SDS011;31390;51.186;6.830;2022-09-16T15:48:28;2.70;;;0.80;;
45676;SDS011;31390;51.186;6.830;2022-09-16T15:50:59;3.17;;;0.93;;
45676;SDS011;31390;51.186;6.830;2022-09-16T15:55:59;4.03;;;1.10;;
45676;SDS011;31390;51.186;6.830;2022-09-16T15:58:37;4.35;;;1.48;;
45676;SDS011;31390;51.186;6.830;2022-09-16T16:01:20;2.35;;;0.95;;
45676;SDS011;31390;51.186;6.830;2022-09-16T16:04:00;6.22;;;1.50;;
45676;SDS011;31390;51.186;6.830;2022-09-16T16:06:47;4.13;;;1.17;;
45676;SDS011;31390;51.186;6.830;2022-09-16T16:11:53;4.18;;;1.30;;
45676;SDS011;31390;51.186;6.830;2022-09-16T16:14:19;5.15;;;1.58;;
45676;SDS011;31390;51.186;6.830;2022-09-16T16:16:46;4.50;;;1.45;;
45676;SDS011;31390;51.186;6.830;2022-09-16T16:19:33;5.15;;;1.40;;
45676;SDS011;31390;51.186;6.830;2022-09-16T16:22:00;3.92;;;1.25;;
45676;SDS011;31390;51.186;6.830;2022-09-16T16:24:26;5.05;;;1.10;;
45676;SDS011;31390;51.186;6.830;2022-09-16T16:26:54;2.85;;;1.23;;
45676;SDS011;31390;51.186;6.830;2022-09-16T16:29:22;3.30;;;1.10;;
45676;SDS011;31390;51.186;6.830;2022-09-16T16:31:59;5.38;;;1.67;;
45676;SDS011;31390;51.186;6.830;2022-09-16T16:34:25;2.50;;;1.10;;
45676;SDS011;31390;51.186;6.830;2022-09-16T16:36:52;4.25;;;1.35;;
45676;SDS011;31390;51.186;6.830;2022-09-16T16:39:18;3.95;;;1.45;;
45676;SDS011;31390;51.186;6.830;2022-09-16T16:41:44;5.38;;;1.40;;
45676;SDS011;31390;51.186;6.830;2022-09-16T16:44:11;9.02;;;1.80;;
45676;SDS011;31390;51.186;6.830;2022-09-16T16:46:38;1.80;;;0.82;;
45676;SDS011;31390;51.186;6.830;2022-09-16T16:49:04;3.33;;;1.10;;
45676;SDS011;31390;51.186;6.830;2022-09-16T16:51:31;4.97;;;1.33;;
45676;SDS011;31390;51.186;6.830;2022-09-16T16:53:57;3.63;;;1.10;;
45676;SDS011;31390;51.186;6.830;2022-09-16T16:56:24;5.38;;;1.58;;
45676;SDS011;31390;51.186;6.830;2022-09-16T16:58:50;2.25;;;1.02;;
45676;SDS011;31390;51.186;6.830;2022-09-16T17:01:17;4.65;;;1.33;;
45676;SDS011;31390;51.186;6.830;2022-09-16T17:03:44;3.83;;;1.10;;
45676;SDS011;31390;51.186;6.830;2022-09-16T17:06:12;4.82;;;1.25;;
45676;SDS011;31390;51.186;6.830;2022-09-16T17:08:39;5.20;;;1.58;;
45676;SDS011;31390;51.186;6.830;2022-09-16T17:11:06;4.13;;;1.40;;
45676;SDS011;31390;51.186;6.830;2022-09-16T17:13:33;2.25;;;1.20;;
45676;SDS011;31390;51.186;6.830;2022-09-16T17:16:00;7.20;;;1.52;;
45676;SDS011;31390;51.186;6.830;2022-09-16T17:18:26;6.60;;;1.90;;
45676;SDS011;31390;51.186;6.830;2022-09-16T17:20:53;3.92;;;1.45;;
45676;SDS011;31390;51.186;6.830;2022-09-16T17:23:25;5.15;;;1.70;;
45676;SDS011;31390;51.186;6.830;2022-09-16T17:25:52;6.93;;;1.45;;
45676;SDS011;31390;51.186;6.830;2022-09-16T17:28:18;6.60;;;1.75;;
45676;SDS011;31390;51.186;6.830;2022-09-16T17:30:44;5.32;;;1.70;;